EHKD/DHR METAR and TAF weather

Enter ICAO airport designator
Station Type Date Time Source
EHKD METAR 2018/01/22 19:55 UTC NOAA

EHKD 221955Z AUTO 28011KT 9999 FEW039 OVC054 07/05 Q1013 BLU


Station Type Date Time Source
EHKD Decoded METAR 2018/01/22 19:55 UTC NOAA

De Kooy, Netherlands (EHKD) 52-55N 004-47E 14M
Jan 22, 2018 - 02:55 PM EST / 2018.01.22 1955 UTC
Wind: from the W (280 degrees) at 13 MPH (11 KT):0
Visibility: greater than 7 mile(s):0
Sky conditions: overcast
Temperature: 44 F (7 C)
Dew Point: 41 F (5 C)
Relative Humidity: 87%
Pressure (altimeter): 29.91 in. Hg (1013 hPa)
ob: EHKD 221955Z AUTO 28011KT 9999 FEW039 OVC054 07/05 Q1013 BLU
cycle: 20

Station Type Date Time Source
EHKD TAF 2018/01/22 18:48 UTC NOAA

TAF TAF EHKD 221736Z 2218/2306 28010KT 9999 BKN040


Example: see airport list